createdAt,value
2024-01-18T00:00:09.049Z,6.18
2024-01-18T00:03:11.526Z,4.87
2024-01-18T00:06:14.066Z,5.03
2024-01-18T00:09:16.328Z,5.82
2024-01-18T00:12:18.500Z,6.30
2024-01-18T00:15:20.929Z,4.95
2024-01-18T00:18:23.268Z,4.90
2024-01-18T00:21:25.665Z,4.50
2024-01-18T00:24:28.018Z,5.03
2024-01-18T00:27:30.291Z,5.40
2024-01-18T00:30:32.636Z,4.35
2024-01-18T00:33:35.043Z,4.73
2024-01-18T00:36:37.562Z,6.50
2024-01-18T00:39:43.662Z,5.40
2024-01-18T00:42:45.977Z,5.03
2024-01-18T00:45:48.174Z,5.18
2024-01-18T00:48:50.541Z,4.28
2024-01-18T00:51:52.901Z,4.25
2024-01-18T00:54:55.177Z,3.37
2024-01-18T00:57:57.374Z,3.33
2024-01-18T01:01:00.166Z,3.45
2024-01-18T01:04:03.216Z,2.97
2024-01-18T01:07:05.861Z,3.17
2024-01-18T01:10:08.461Z,3.50
2024-01-18T01:13:11.157Z,3.85
2024-01-18T01:16:13.536Z,3.20
2024-01-18T01:19:15.852Z,2.80
2024-01-18T01:22:18.187Z,2.75
2024-01-18T01:25:20.387Z,2.17
2024-01-18T01:28:22.591Z,3.17
2024-01-18T01:31:24.796Z,2.78
2024-01-18T01:34:26.981Z,2.07
2024-01-18T01:37:29.184Z,3.08
2024-01-18T01:40:31.425Z,2.60
2024-01-18T01:43:33.697Z,2.67
2024-01-18T01:46:35.764Z,2.30
2024-01-18T01:49:38.507Z,2.15
2024-01-18T01:52:42.909Z,2.15
2024-01-18T01:55:46.694Z,2.50
2024-01-18T01:58:53.027Z,2.15
2024-01-18T02:01:55.408Z,1.92
2024-01-18T02:04:57.637Z,2.07
2024-01-18T02:08:00.364Z,1.67
2024-01-18T02:11:03.814Z,3.13
2024-01-18T02:14:06.154Z,2.08
2024-01-18T02:17:08.547Z,2.17
2024-01-18T02:20:11.494Z,2.22
2024-01-18T02:23:13.977Z,2.70
2024-01-18T02:26:16.308Z,2.37
2024-01-18T02:29:18.587Z,3.45
2024-01-18T02:32:20.752Z,2.63
2024-01-18T02:35:23.067Z,2.13
2024-01-18T02:38:25.953Z,2.65
2024-01-18T02:41:30.840Z,2.00
2024-01-18T02:44:33.115Z,3.15
2024-01-18T02:47:36.384Z,2.33
2024-01-18T02:50:42.279Z,2.40
2024-01-18T02:53:44.585Z,2.47
2024-01-18T02:56:46.717Z,1.63
2024-01-18T02:59:48.968Z,1.98
2024-01-18T03:02:51.090Z,2.50
2024-01-18T03:05:53.217Z,2.40
2024-01-18T03:08:55.353Z,2.10
2024-01-18T03:11:58.227Z,2.30
2024-01-18T03:15:00.504Z,2.60
2024-01-18T03:18:02.869Z,2.85
2024-01-18T03:21:08.269Z,2.58
2024-01-18T03:24:10.744Z,2.95
2024-01-18T03:27:13.187Z,2.43
2024-01-18T03:30:15.533Z,2.53
2024-01-18T03:33:18.464Z,2.40
2024-01-18T03:36:21.238Z,2.40
2024-01-18T03:39:23.418Z,1.90
2024-01-18T03:42:25.740Z,2.53
2024-01-18T03:45:27.888Z,1.77
2024-01-18T03:48:30.138Z,2.47
2024-01-18T03:51:32.625Z,1.77
2024-01-18T03:54:34.937Z,2.60
2024-01-18T03:57:37.269Z,1.67
2024-01-18T04:00:42.811Z,2.63
2024-01-18T04:03:49.611Z,1.70
2024-01-18T04:06:52.160Z,1.07
2024-01-18T04:09:54.227Z,2.78
2024-01-18T04:12:56.878Z,2.95
2024-01-18T04:15:59.050Z,1.52
2024-01-18T04:19:01.477Z,1.75
2024-01-18T04:22:04.005Z,1.75
2024-01-18T04:25:07.013Z,2.40
2024-01-18T04:28:11.686Z,1.90
2024-01-18T04:31:13.786Z,2.40
2024-01-18T04:34:16.219Z,1.67
2024-01-18T04:37:18.365Z,2.50
2024-01-18T04:40:20.516Z,2.28
2024-01-18T04:43:22.941Z,3.13
2024-01-18T04:46:26.489Z,2.50
2024-01-18T04:49:29.272Z,1.85
2024-01-18T04:52:31.536Z,2.13
2024-01-18T04:55:36.149Z,2.45
2024-01-18T04:58:40.388Z,2.50
2024-01-18T05:01:44.816Z,2.78
2024-01-18T05:04:47.099Z,2.58
2024-01-18T05:07:51.077Z,2.63
2024-01-18T05:10:55.155Z,2.78
2024-01-18T05:13:58.086Z,2.17
2024-01-18T05:17:06.931Z,2.17
2024-01-18T05:20:09.666Z,2.67
2024-01-18T05:23:11.977Z,3.40
2024-01-18T05:26:14.300Z,3.22
2024-01-18T05:29:16.504Z,7.37
2024-01-18T05:32:21.909Z,6.15
2024-01-18T05:35:24.168Z,4.40
2024-01-18T05:38:26.230Z,3.63
2024-01-18T05:41:28.424Z,3.25
2024-01-18T05:44:31.126Z,2.33
2024-01-18T05:47:33.409Z,3.13
2024-01-18T05:50:35.556Z,2.63
2024-01-18T05:53:37.784Z,4.03
2024-01-18T05:56:40.081Z,4.38
2024-01-18T05:59:42.257Z,3.50
2024-01-18T06:02:44.422Z,4.55
2024-01-18T06:05:46.736Z,4.28
2024-01-18T06:08:49.362Z,5.33
2024-01-18T06:11:51.756Z,4.78
2024-01-18T06:14:53.928Z,5.15
2024-01-18T06:18:02.039Z,6.07
2024-01-18T06:21:08.281Z,5.75
2024-01-18T06:24:10.613Z,6.65
2024-01-18T06:27:13.305Z,5.43
2024-01-18T06:30:15.861Z,5.80
2024-01-18T06:33:18.539Z,6.88
2024-01-18T06:36:20.953Z,5.10
2024-01-18T06:39:23.342Z,5.77
2024-01-18T06:42:25.995Z,7.70
2024-01-18T06:45:28.126Z,6.78
2024-01-18T06:48:30.152Z,7.60
2024-01-18T06:51:32.368Z,7.07
2024-01-18T06:54:34.669Z,6.60
2024-01-18T06:57:36.877Z,6.03
2024-01-18T07:00:39.148Z,5.07
2024-01-18T07:03:42.977Z,5.95
2024-01-18T07:06:45.425Z,6.13
2024-01-18T07:09:47.632Z,5.27
2024-01-18T07:12:53.009Z,7.90
2024-01-18T07:15:55.469Z,6.88
2024-01-18T07:18:57.894Z,6.55
2024-01-18T07:22:00.052Z,6.22
2024-01-18T07:25:05.199Z,6.38
2024-01-18T07:28:07.608Z,6.25
2024-01-18T07:31:09.679Z,5.77
2024-01-18T07:34:12.014Z,6.28
2024-01-18T07:37:15.097Z,7.13
2024-01-18T07:40:17.550Z,7.47
2024-01-18T07:43:20.362Z,6.95
2024-01-18T07:46:22.442Z,6.78
2024-01-18T07:49:25.484Z,7.50
2024-01-18T07:52:27.684Z,7.15
2024-01-18T07:55:30.390Z,6.53
2024-01-18T07:58:32.624Z,7.00
2024-01-18T08:01:37.272Z,5.97
2024-01-18T08:04:41.498Z,8.35
2024-01-18T08:07:43.805Z,7.30
2024-01-18T08:10:45.906Z,6.57
2024-01-18T08:13:48.053Z,7.10
2024-01-18T08:16:50.338Z,7.05
2024-01-18T08:19:52.744Z,7.28
2024-01-18T08:22:55.032Z,7.75
2024-01-18T08:25:57.284Z,8.15
2024-01-18T08:28:59.517Z,6.32
2024-01-18T08:32:03.485Z,6.83
2024-01-18T08:35:09.643Z,5.50
2024-01-18T08:38:11.820Z,6.43
2024-01-18T08:41:14.092Z,7.90
2024-01-18T08:44:16.264Z,7.00
2024-01-18T08:47:20.703Z,7.25
2024-01-18T08:50:24.952Z,6.85
2024-01-18T08:53:27.072Z,7.50
2024-01-18T08:56:31.339Z,8.93
2024-01-18T08:59:35.074Z,6.72
2024-01-18T09:02:37.408Z,6.73
2024-01-18T09:05:39.502Z,6.50
2024-01-18T09:08:41.635Z,7.93
2024-01-18T09:11:43.788Z,11.97
2024-01-18T09:14:46.363Z,11.23
2024-01-18T09:17:48.551Z,14.82
2024-01-18T09:20:50.742Z,9.30
2024-01-18T09:23:53.049Z,8.60
2024-01-18T09:26:55.168Z,8.48
2024-01-18T09:29:57.407Z,4.97
2024-01-18T09:32:59.852Z,4.80
2024-01-18T09:36:02.669Z,3.88
2024-01-18T09:39:17.578Z,5.40
2024-01-18T09:42:22.809Z,4.38
2024-01-18T09:45:28.373Z,3.17
2024-01-18T09:48:31.489Z,4.97
2024-01-18T09:51:33.762Z,3.78
2024-01-18T09:54:40.414Z,3.67
2024-01-18T09:57:48.612Z,3.17
2024-01-18T10:01:00.551Z,3.05
2024-01-18T10:04:02.827Z,9.20
2024-01-18T10:07:05.803Z,12.45
2024-01-18T10:10:11.436Z,6.70
2024-01-18T10:13:14.900Z,6.22
2024-01-18T10:16:33.937Z,5.78
2024-01-18T10:19:36.311Z,6.82
2024-01-18T10:22:39.717Z,8.57
2024-01-18T10:25:42.097Z,5.07
2024-01-18T10:28:44.752Z,4.88
2024-01-18T10:31:46.985Z,4.40
2024-01-18T10:34:49.951Z,2.80
2024-01-18T10:38:05.346Z,3.30
2024-01-18T10:41:09.136Z,8.70
2024-01-18T10:44:11.774Z,7.90
2024-01-18T10:47:16.170Z,6.23
2024-01-18T10:50:18.645Z,8.27
2024-01-18T10:53:24.051Z,4.45
2024-01-18T10:56:26.323Z,3.90
2024-01-18T10:59:30.575Z,3.47
2024-01-18T11:02:33.194Z,3.38
2024-01-18T11:05:35.621Z,3.20
2024-01-18T11:08:38.882Z,2.67
2024-01-18T11:11:41.823Z,3.70
2024-01-18T11:14:44.353Z,2.42
2024-01-18T11:17:48.303Z,6.03
2024-01-18T11:21:10.209Z,9.00
2024-01-18T11:24:13.284Z,14.98
2024-01-18T11:27:23.131Z,12.75
2024-01-18T11:30:37.307Z,7.23
2024-01-18T11:33:40.169Z,9.93
2024-01-18T11:36:49.311Z,8.88
2024-01-18T11:39:52.308Z,8.13
2024-01-18T11:42:54.711Z,8.48
2024-01-18T11:45:57.238Z,8.77
2024-01-18T11:48:59.695Z,5.50
2024-01-18T11:52:02.131Z,6.13
2024-01-18T11:55:05.493Z,7.68
2024-01-18T11:58:09.347Z,7.70
2024-01-18T12:01:15.196Z,7.18
2024-01-18T12:04:17.334Z,9.90
2024-01-18T12:07:21.392Z,10.52
2024-01-18T12:10:24.920Z,10.50
2024-01-18T12:13:28.608Z,10.40
2024-01-18T12:16:32.021Z,9.37
2024-01-18T12:19:36.132Z,10.13
2024-01-18T12:22:38.530Z,9.98
2024-01-18T12:25:40.738Z,10.05
2024-01-18T12:28:42.958Z,11.60
2024-01-18T12:31:48.258Z,10.38
2024-01-18T12:34:50.773Z,10.27
2024-01-18T12:37:53.163Z,13.00
2024-01-18T12:40:55.363Z,11.13
2024-01-18T12:44:04.771Z,9.90
2024-01-18T12:47:07.151Z,8.07
2024-01-18T12:50:11.899Z,9.20
2024-01-18T12:53:14.514Z,9.18
2024-01-18T12:56:17.886Z,11.48
2024-01-18T12:59:20.140Z,11.65
2024-01-18T13:02:26.653Z,9.93
2024-01-18T13:05:29.114Z,8.68
2024-01-18T13:08:32.348Z,10.05
2024-01-18T13:11:34.932Z,6.97
2024-01-18T13:14:38.087Z,7.65
2024-01-18T13:17:42.864Z,9.38
2024-01-18T13:20:45.950Z,5.88
2024-01-18T13:23:48.193Z,5.00
2024-01-18T13:26:51.637Z,4.25
2024-01-18T13:29:53.694Z,4.60
2024-01-18T13:32:57.016Z,5.82
2024-01-18T13:35:59.429Z,4.23
2024-01-18T13:39:02.380Z,4.97
2024-01-18T13:42:04.838Z,4.78
2024-01-18T13:45:07.531Z,5.25
2024-01-18T13:48:09.813Z,5.17
2024-01-18T13:51:14.852Z,5.30
2024-01-18T13:54:17.453Z,8.23
2024-01-18T13:57:20.036Z,7.43
2024-01-18T14:00:23.458Z,7.43
2024-01-18T14:03:26.082Z,6.85
2024-01-18T14:06:28.529Z,7.13
2024-01-18T14:09:32.187Z,6.93
2024-01-18T14:12:36.486Z,8.32
2024-01-18T14:15:39.836Z,11.13
2024-01-18T14:18:42.929Z,11.82
2024-01-18T14:21:45.908Z,10.77
2024-01-18T14:24:48.898Z,11.68
2024-01-18T14:27:51.151Z,17.02
2024-01-18T14:30:53.785Z,14.85
2024-01-18T14:33:56.151Z,12.50
2024-01-18T14:36:58.621Z,11.90
2024-01-18T14:40:00.931Z,15.15
2024-01-18T14:43:05.456Z,16.92
2024-01-18T14:46:07.947Z,15.77
2024-01-18T14:49:10.154Z,13.48
2024-01-18T14:52:12.519Z,14.20
2024-01-18T14:55:15.176Z,13.53
2024-01-18T14:58:17.419Z,15.13
2024-01-18T15:01:19.538Z,17.15
2024-01-18T15:04:21.886Z,14.73
2024-01-18T15:07:24.142Z,11.45
2024-01-18T15:10:26.374Z,8.00
2024-01-18T15:13:28.538Z,9.00
2024-01-18T15:16:30.710Z,8.60
2024-01-18T15:19:33.873Z,10.20
2024-01-18T15:22:36.116Z,11.07
2024-01-18T15:25:40.080Z,11.32
2024-01-18T15:28:42.264Z,16.77
2024-01-18T15:31:44.476Z,13.73
2024-01-18T15:34:47.228Z,11.55
2024-01-18T15:37:51.019Z,15.17
2024-01-18T15:40:53.652Z,12.88
2024-01-18T15:43:56.325Z,14.75
2024-01-18T15:47:05.858Z,13.93
2024-01-18T15:50:08.882Z,10.13
2024-01-18T15:53:11.302Z,8.55
2024-01-18T15:56:13.666Z,13.25
2024-01-18T15:59:15.860Z,14.03
2024-01-18T16:02:18.692Z,16.27
2024-01-18T16:05:22.764Z,15.43
2024-01-18T16:08:25.136Z,13.48
2024-01-18T16:11:27.358Z,14.43
2024-01-18T16:14:30.131Z,17.50
2024-01-18T16:17:32.246Z,18.08
2024-01-18T16:20:34.385Z,22.73
2024-01-18T16:23:36.795Z,22.23
2024-01-18T16:26:39.373Z,17.73
2024-01-18T16:29:54.172Z,15.57
2024-01-18T16:33:03.810Z,11.98
2024-01-18T16:36:06.740Z,11.82
2024-01-18T16:39:10.131Z,16.20
2024-01-18T16:42:12.283Z,17.30
2024-01-18T16:45:14.776Z,18.02
2024-01-18T16:48:17.278Z,14.85
2024-01-18T16:51:19.896Z,16.27
2024-01-18T16:54:23.031Z,16.23
2024-01-18T16:57:32.092Z,12.75
2024-01-18T17:00:35.311Z,13.35
2024-01-18T17:03:38.045Z,13.30
2024-01-18T17:06:41.198Z,14.55
2024-01-18T17:09:44.481Z,17.20
2024-01-18T17:12:46.661Z,13.37
2024-01-18T17:15:49.173Z,12.25
2024-01-18T17:18:51.501Z,14.77
2024-01-18T17:21:53.764Z,14.47
2024-01-18T17:24:56.022Z,15.75
2024-01-18T17:27:58.376Z,12.50
2024-01-18T17:31:00.700Z,15.75
2024-01-18T17:34:04.197Z,15.70
2024-01-18T17:37:06.399Z,15.13
2024-01-18T17:40:09.177Z,14.40
2024-01-18T17:43:11.454Z,17.27
2024-01-18T17:46:13.649Z,17.50
2024-01-18T17:49:15.988Z,15.45
2024-01-18T17:52:18.210Z,17.63
2024-01-18T17:55:20.457Z,17.17
2024-01-18T17:58:22.714Z,20.65
2024-01-18T18:01:24.929Z,17.67
2024-01-18T18:04:27.082Z,16.15
2024-01-18T18:07:29.159Z,14.57
2024-01-18T18:10:31.381Z,16.55
2024-01-18T18:13:35.402Z,15.80
2024-01-18T18:16:37.699Z,13.68
2024-01-18T18:19:39.920Z,12.63
2024-01-18T18:22:42.058Z,13.00
2024-01-18T18:25:44.258Z,13.85
2024-01-18T18:28:47.604Z,11.13
2024-01-18T18:31:49.687Z,13.20
2024-01-18T18:34:51.876Z,12.73
2024-01-18T18:37:54.105Z,12.55
2024-01-18T18:40:56.303Z,13.60
2024-01-18T18:43:58.453Z,11.63
2024-01-18T18:47:00.844Z,13.95
2024-01-18T18:50:03.004Z,11.77
2024-01-18T18:53:05.335Z,13.10
2024-01-18T18:56:07.571Z,13.57
2024-01-18T18:59:09.854Z,11.60
2024-01-18T19:02:12.034Z,9.63
2024-01-18T19:05:14.468Z,10.10
2024-01-18T19:08:16.973Z,12.05
2024-01-18T19:11:19.306Z,13.13
2024-01-18T19:14:21.570Z,13.23
2024-01-18T19:17:26.462Z,12.85
2024-01-18T19:20:29.759Z,17.52
2024-01-18T19:23:31.902Z,16.30
2024-01-18T19:26:34.185Z,14.40
2024-01-18T19:29:36.485Z,16.77
2024-01-18T19:32:40.892Z,14.27
2024-01-18T19:35:43.656Z,15.40
2024-01-18T19:38:47.715Z,14.60
2024-01-18T19:41:50.543Z,14.65
2024-01-18T19:44:54.236Z,14.60
2024-01-18T19:47:56.688Z,14.73
2024-01-18T19:50:58.948Z,18.50
2024-01-18T19:54:04.194Z,18.23
2024-01-18T19:57:06.888Z,14.10
2024-01-18T20:00:10.381Z,13.63
2024-01-18T20:03:15.466Z,14.10
2024-01-18T20:06:17.895Z,13.57
2024-01-18T20:09:20.485Z,13.00
2024-01-18T20:12:26.670Z,11.90
2024-01-18T20:15:29.375Z,13.17
2024-01-18T20:18:31.814Z,10.73
2024-01-18T20:21:34.420Z,9.98
2024-01-18T20:24:37.209Z,8.60
2024-01-18T20:27:40.175Z,9.18
2024-01-18T20:30:42.722Z,9.98
2024-01-18T20:33:46.997Z,11.77
2024-01-18T20:36:50.985Z,11.35
2024-01-18T20:39:54.154Z,13.00
2024-01-18T20:42:56.653Z,16.13
2024-01-18T20:45:59.768Z,22.47
2024-01-18T20:49:03.800Z,21.63
2024-01-18T20:52:08.288Z,26.58
2024-01-18T20:55:10.700Z,24.13
2024-01-18T20:58:12.836Z,23.05
2024-01-18T21:01:15.071Z,18.70
2024-01-18T21:04:17.495Z,18.10
2024-01-18T21:07:21.579Z,15.60
2024-01-18T21:10:24.305Z,14.35
2024-01-18T21:13:27.192Z,13.02
2024-01-18T21:16:29.582Z,15.20
2024-01-18T21:19:31.935Z,14.90
2024-01-18T21:22:34.639Z,16.60
2024-01-18T21:25:37.247Z,14.93
2024-01-18T21:28:40.649Z,20.20
2024-01-18T21:31:42.743Z,15.88
2024-01-18T21:34:45.009Z,16.38
2024-01-18T21:37:47.337Z,14.98
2024-01-18T21:40:49.513Z,13.68
2024-01-18T21:43:51.699Z,15.23
2024-01-18T21:46:55.705Z,16.87
2024-01-18T21:49:58.690Z,16.27
2024-01-18T21:53:01.139Z,16.67
2024-01-18T21:56:03.517Z,18.33
2024-01-18T21:59:06.617Z,17.55
2024-01-18T22:02:13.646Z,17.05
2024-01-18T22:05:17.959Z,17.58
2024-01-18T22:08:20.564Z,14.73
2024-01-18T22:11:22.958Z,14.85
2024-01-18T22:14:25.842Z,14.65
2024-01-18T22:17:28.530Z,15.40
2024-01-18T22:20:31.216Z,15.95
2024-01-18T22:23:33.746Z,17.35
2024-01-18T22:26:36.098Z,16.37
2024-01-18T22:29:38.479Z,16.80
2024-01-18T22:32:43.315Z,16.27
2024-01-18T22:35:45.502Z,15.15
2024-01-18T22:38:47.779Z,13.35
2024-01-18T22:41:49.919Z,19.95
2024-01-18T22:44:52.559Z,19.98
2024-01-18T22:47:55.054Z,18.97
2024-01-18T22:50:57.598Z,20.10
2024-01-18T22:54:01.807Z,15.43
2024-01-18T22:57:04.367Z,15.57
2024-01-18T23:00:07.382Z,15.20
2024-01-18T23:03:09.682Z,15.13
2024-01-18T23:06:13.293Z,13.93
2024-01-18T23:09:15.521Z,16.90
2024-01-18T23:12:17.911Z,15.52
2024-01-18T23:15:20.399Z,17.48
2024-01-18T23:18:22.942Z,15.03
2024-01-18T23:21:25.259Z,12.73
2024-01-18T23:24:27.527Z,15.65
2024-01-18T23:27:29.962Z,14.90
2024-01-18T23:30:32.366Z,15.52
2024-01-18T23:33:34.548Z,15.48
2024-01-18T23:36:38.976Z,12.77
2024-01-18T23:39:41.656Z,10.68
2024-01-18T23:42:43.998Z,12.63
2024-01-18T23:45:46.143Z,11.82
2024-01-18T23:48:48.387Z,11.27
2024-01-18T23:51:50.770Z,8.95
2024-01-18T23:54:52.952Z,8.18
2024-01-18T23:57:55.136Z,8.63
